Time;durP1;ratioP1;P1;durP2;ratioP2;P2;SDS_P1;SDS_P2;PMS_P1;PMS_P2;Temp;Humidity;BMP_temperature;BMP_pressure;BME280_temperature;BME280_humidity;BME280_pressure;Samples;Min_cycle;Max_cycle;Signal;HPM_P1;HPM_P2
2021/11/28 00:00:51;;;;;;;33.70;19.85;;;4.50;99.90;;;;;;5055367;28;20037;-82
2021/11/28 00:03:20;;;;;;;32.47;20.27;;;4.50;99.90;;;;;;5020935;28;20039;-81
2021/11/28 00:06:01;;;;;;;33.30;22.30;;;4.50;99.90;;;;;;5035411;28;20029;-79
2021/11/28 00:15:55;;;;;;;29.65;18.55;;;4.50;99.90;;;;;;5022081;28;20043;-82
2021/11/28 00:18:21;;;;;;;24.92;17.40;;;4.50;99.90;;;;;;5035107;28;20036;-82
2021/11/28 00:20:48;;;;;;;30.05;17.50;;;4.50;99.90;;;;;;5021179;28;20040;-81
2021/11/28 00:23:15;;;;;;;26.70;17.03;;;4.50;99.90;;;;;;5069452;28;20495;-81
2021/11/28 00:25:41;;;;;;;25.13;16.58;;;4.50;99.90;;;;;;5035379;28;20453;-80
2021/11/28 00:28:12;;;;;;;24.83;14.90;;;4.40;99.90;;;;;;5013607;28;20595;-81
2021/11/28 00:30:40;;;;;;;21.63;14.00;;;4.40;99.90;;;;;;5021122;28;20044;-79
2021/11/28 00:33:07;;;;;;;21.88;13.05;;;4.40;99.90;;;;;;5020608;28;20052;-81
2021/11/28 00:35:34;;;;;;;18.42;13.00;;;4.40;99.90;;;;;;5008025;28;20048;-82
2021/11/28 00:38:00;;;;;;;19.67;10.90;;;4.40;99.90;;;;;;5035060;28;20036;-81
2021/11/28 00:40:27;;;;;;;15.40;10.07;;;4.40;99.90;;;;;;5054026;28;20029;-82
2021/11/28 00:42:55;;;;;;;17.17;11.13;;;4.40;99.90;;;;;;5029798;28;20036;-81
2021/11/28 00:45:21;;;;;;;17.30;9.73;;;4.40;99.90;;;;;;5034783;28;20480;-81
2021/11/28 00:47:48;;;;;;;20.60;10.10;;;4.40;99.90;;;;;;5034429;28;20036;-81
2021/11/28 00:52:42;;;;;;;13.02;8.80;;;4.50;99.90;;;;;;5053037;28;20387;-81
2021/11/28 00:55:11;;;;;;;13.63;8.98;;;4.50;99.90;;;;;;5004460;28;20495;-80
2021/11/28 00:57:37;;;;;;;14.45;8.48;;;4.40;99.90;;;;;;5036917;28;20048;-81
2021/11/28 01:00:06;;;;;;;20.10;10.60;;;4.50;99.90;;;;;;5021138;28;20039;-81
2021/11/28 01:02:35;;;;;;;14.07;8.57;;;4.50;99.90;;;;;;4991412;28;20036;-80
2021/11/28 01:05:03;;;;;;;16.63;9.43;;;4.50;99.90;;;;;;5044128;28;20045;-79
2021/11/28 01:07:30;;;;;;;16.45;9.27;;;4.50;99.90;;;;;;5061225;28;20047;-82
2021/11/28 01:09:57;;;;;;;14.85;9.07;;;4.50;99.90;;;;;;5026240;28;20479;-80
2021/11/28 01:12:23;;;;;;;15.07;8.65;;;4.50;99.90;;;;;;5057846;28;20032;-81
2021/11/28 01:14:51;;;;;;;12.52;8.77;;;4.50;99.90;;;;;;5041757;28;20040;-81
2021/11/28 01:17:19;;;;;;;15.30;7.90;;;4.50;99.90;;;;;;5030563;28;20028;-80
2021/11/28 01:19:45;;;;;;;12.40;8.00;;;4.50;99.90;;;;;;5037117;28;20693;-87
2021/11/28 01:22:14;;;;;;;12.20;8.20;;;4.50;99.90;;;;;;5028286;28;20400;-79
2021/11/28 01:24:41;;;;;;;12.30;7.50;;;4.50;99.90;;;;;;5067317;28;20039;-78
2021/11/28 01:27:11;;;;;;;14.13;8.52;;;4.50;99.90;;;;;;5055348;28;20484;-78
2021/11/28 01:29:38;;;;;;;17.15;9.25;;;4.50;99.90;;;;;;5034122;28;20032;-78
2021/11/28 01:32:05;;;;;;;14.37;7.93;;;4.50;99.90;;;;;;5055456;28;20499;-77
2021/11/28 01:34:32;;;;;;;14.68;8.73;;;4.50;99.90;;;;;;5024082;28;20439;-81
2021/11/28 01:36:59;;;;;;;15.68;8.38;;;4.50;99.90;;;;;;5000650;28;20041;-80
2021/11/28 01:39:26;;;;;;;13.73;7.97;;;4.50;99.90;;;;;;5036924;28;20051;-81
2021/11/28 01:41:53;;;;;;;15.98;8.25;;;4.50;99.90;;;;;;5027499;28;20032;-82
2021/11/28 01:44:19;;;;;;;15.05;7.72;;;4.50;99.90;;;;;;5033886;28;20041;-82
2021/11/28 01:46:47;;;;;;;12.10;7.78;;;4.50;99.90;;;;;;5051268;28;20028;-83
2021/11/28 01:49:15;;;;;;;19.15;10.07;;;4.50;99.90;;;;;;5012666;28;20037;-83
2021/11/28 01:51:42;;;;;;;19.88;10.32;;;4.50;99.90;;;;;;5003026;28;20033;-83
2021/11/28 01:54:12;;;;;;;19.23;12.13;;;4.50;99.90;;;;;;5049750;28;20033;-81
2021/11/28 01:56:42;;;;;;;26.92;14.77;;;4.40;99.90;;;;;;5077574;28;20399;-82
2021/11/28 01:59:10;;;;;;;22.42;15.75;;;4.50;99.90;;;;;;5028201;28;20028;-82
2021/11/28 02:01:38;;;;;;;25.23;16.70;;;4.40;99.90;;;;;;5026388;28;20040;-81
2021/11/28 02:04:07;;;;;;;23.27;14.38;;;4.40;99.90;;;;;;5060361;28;20032;-82
2021/11/28 02:06:34;;;;;;;25.33;15.60;;;4.40;99.90;;;;;;5027217;28;20032;-81
2021/11/28 02:09:00;;;;;;;25.45;16.63;;;4.40;99.90;;;;;;5041775;28;20031;-82
2021/11/28 02:11:27;;;;;;;25.80;15.85;;;4.30;99.90;;;;;;5044981;28;20040;-82
2021/11/28 02:13:54;;;;;;;26.58;17.23;;;4.30;99.90;;;;;;5057581;28;20047;-82
2021/11/28 02:16:20;;;;;;;24.98;15.60;;;4.30;99.90;;;;;;5025822;28;20040;-81
2021/11/28 02:18:50;;;;;;;28.27;16.80;;;4.30;99.90;;;;;;5028161;28;20048;-82
2021/11/28 02:21:17;;;;;;;22.73;15.27;;;4.30;99.90;;;;;;5010872;28;20036;-81
2021/11/28 02:23:44;;;;;;;23.75;15.38;;;4.30;99.90;;;;;;5029333;28;20252;-82
2021/11/28 02:26:15;;;;;;;25.85;16.27;;;4.30;99.90;;;;;;5000423;28;20029;-81
2021/11/28 02:28:45;;;;;;;23.88;15.85;;;4.30;99.90;;;;;;5038790;28;20036;-81
2021/11/28 02:31:12;;;;;;;25.08;16.55;;;4.30;99.90;;;;;;5034727;28;20047;-80
2021/11/28 02:33:40;;;;;;;28.60;17.60;;;4.30;99.90;;;;;;5005903;28;20048;-79
2021/11/28 02:36:08;;;;;;;25.60;15.43;;;4.30;99.90;;;;;;5025374;28;20582;-81
2021/11/28 02:38:35;;;;;;;27.10;16.48;;;4.30;99.90;;;;;;5062952;28;20043;-82
2021/11/28 02:41:03;;;;;;;25.88;16.05;;;4.30;99.90;;;;;;5030152;28;20043;-82
2021/11/28 02:43:34;;;;;;;23.20;15.30;;;4.30;99.90;;;;;;5017601;28;21148;-82
2021/11/28 02:46:03;;;;;;;27.13;17.27;;;4.30;99.90;;;;;;5052743;28;20024;-82
2021/11/28 02:48:29;;;;;;;29.57;17.27;;;4.30;99.90;;;;;;5024438;28;20487;-85
2021/11/28 02:50:58;;;;;;;29.35;18.38;;;4.30;99.90;;;;;;5011028;28;20040;-82
2021/11/28 02:53:25;;;;;;;26.57;17.67;;;4.30;99.90;;;;;;5009628;28;20048;-81
2021/11/28 02:55:56;;;;;;;29.45;18.30;;;4.20;99.90;;;;;;5037442;28;20043;-81
2021/11/28 02:58:24;;;;;;;35.90;22.42;;;4.30;99.90;;;;;;5039011;28;20075;-80
2021/11/28 03:00:55;;;;;;;34.83;20.10;;;4.20;99.90;;;;;;5016884;28;20029;-82
2021/11/28 03:03:25;;;;;;;28.38;17.98;;;4.20;99.90;;;;;;5050763;28;20032;-81
2021/11/28 03:05:53;;;;;;;27.90;16.75;;;4.20;99.90;;;;;;5020578;28;20036;-80
2021/11/28 03:08:20;;;;;;;23.20;15.30;;;4.20;99.90;;;;;;5025147;28;20037;-78
2021/11/28 03:10:50;;;;;;;26.10;16.27;;;4.30;99.90;;;;;;5022893;28;20047;-84
2021/11/28 03:13:33;;;;;;;28.15;16.00;;;4.30;99.90;;;;;;5039534;28;20040;-84
2021/11/28 03:16:26;;;;;;;27.60;17.35;;;4.30;99.90;;;;;;5037034;28;20044;-85
2021/11/28 03:19:05;;;;;;;26.60;15.15;;;4.30;99.90;;;;;;5036771;28;20032;-85
2021/11/28 03:21:34;;;;;;;28.27;16.65;;;4.30;99.90;;;;;;5023271;28;20033;-85
2021/11/28 03:24:04;;;;;;;27.25;16.10;;;4.20;99.90;;;;;;5018905;28;20044;-84
2021/11/28 03:26:37;;;;;;;35.10;19.98;;;4.30;99.90;;;;;;5051416;28;20029;-81
2021/11/28 03:29:11;;;;;;;40.15;24.83;;;4.30;99.90;;;;;;5026489;28;20075;-80
2021/11/28 03:31:57;;;;;;;54.53;30.02;;;4.20;99.90;;;;;;5052173;28;20033;-80
2021/11/28 03:34:49;;;;;;;46.80;25.15;;;4.20;99.90;;;;;;5023561;28;20514;-80
2021/11/28 03:37:34;;;;;;;43.10;24.60;;;4.20;99.90;;;;;;5009829;28;20059;-80
2021/11/28 03:40:05;;;;;;;36.58;19.92;;;4.20;99.90;;;;;;5051367;28;20384;-80
2021/11/28 03:42:33;;;;;;;39.53;22.75;;;4.20;99.90;;;;;;5033726;28;20028;-79
2021/11/28 03:45:01;;;;;;;36.70;22.73;;;4.20;99.90;;;;;;5019278;28;20043;-79
2021/11/28 03:47:28;;;;;;;38.70;21.07;;;4.20;99.90;;;;;;5036277;28;20043;-81
2021/11/28 03:49:59;;;;;;;33.22;19.67;;;4.20;99.90;;;;;;5028825;28;20077;-81
2021/11/28 03:52:26;;;;;;;35.27;19.70;;;4.20;99.90;;;;;;5037470;28;20036;-82
2021/11/28 03:54:52;;;;;;;31.83;17.52;;;4.20;99.90;;;;;;5002675;28;20514;-81
2021/11/28 03:57:21;;;;;;;34.60;20.03;;;4.20;99.90;;;;;;5035627;28;20033;-81
2021/11/28 03:59:48;;;;;;;31.58;18.73;;;4.10;99.90;;;;;;5019095;28;20063;-81
2021/11/28 04:02:15;;;;;;;31.77;17.50;;;4.20;99.90;;;;;;5037288;28;20028;-81
2021/11/28 04:04:42;;;;;;;30.98;18.00;;;4.10;99.90;;;;;;5017371;28;20044;-81
2021/11/28 04:07:21;;;;;;;32.43;17.27;;;4.20;99.90;;;;;;5034992;28;20051;-81
2021/11/28 04:09:48;;;;;;;33.42;18.95;;;4.10;99.90;;;;;;5027978;28;20391;-83
2021/11/28 04:12:14;;;;;;;30.63;17.67;;;4.10;99.90;;;;;;5020578;28;20044;-82
2021/11/28 04:14:42;;;;;;;31.13;17.17;;;4.10;99.90;;;;;;4994298;28;20040;-81
2021/11/28 04:17:09;;;;;;;31.38;17.65;;;4.10;99.90;;;;;;5052764;28;20470;-81
2021/11/28 04:19:41;;;;;;;31.73;16.80;;;4.00;99.90;;;;;;5020997;28;20416;-81
2021/11/28 04:22:08;;;;;;;31.17;17.23;;;4.00;99.90;;;;;;5011602;28;20052;-82
2021/11/28 04:24:35;;;;;;;30.73;16.33;;;4.00;99.90;;;;;;5019556;28;20033;-82
2021/11/28 04:27:03;;;;;;;32.53;17.45;;;4.00;99.90;;;;;;5038653;28;20041;-81
2021/11/28 04:29:29;;;;;;;28.17;15.75;;;4.10;99.90;;;;;;5004011;28;20044;-81
2021/11/28 04:31:57;;;;;;;31.67;16.88;;;4.00;99.90;;;;;;5036493;28;20040;-82
2021/11/28 04:34:23;;;;;;;34.05;16.73;;;4.00;99.90;;;;;;5018106;28;20048;-82
2021/11/28 04:36:51;;;;;;;29.70;17.63;;;4.00;99.90;;;;;;5019460;28;20498;-82
2021/11/28 04:39:17;;;;;;;32.65;16.85;;;4.00;99.90;;;;;;5019046;28;20488;-81
2021/11/28 04:41:44;;;;;;;34.53;17.90;;;4.00;99.90;;;;;;5019960;28;20037;-81
2021/11/28 04:44:11;;;;;;;30.92;16.77;;;4.00;99.90;;;;;;5007566;28;20037;-81
2021/11/28 04:46:38;;;;;;;36.42;18.90;;;4.00;99.90;;;;;;5018735;28;20396;-83
2021/11/28 04:49:05;;;;;;;39.97;19.77;;;4.00;99.90;;;;;;5010274;28;20044;-81
2021/11/28 04:51:36;;;;;;;36.55;19.88;;;4.00;99.90;;;;;;5035957;28;20043;-81
2021/11/28 04:54:06;;;;;;;36.85;19.35;;;4.00;99.90;;;;;;5020642;28;20041;-81
2021/11/28 04:56:33;;;;;;;35.47;19.42;;;4.00;99.90;;;;;;5000719;28;20037;-82
2021/11/28 04:58:59;;;;;;;35.20;17.50;;;4.00;99.90;;;;;;5018614;28;20032;-81
2021/11/28 05:01:29;;;;;;;30.20;16.73;;;4.00;99.90;;;;;;5004220;28;20036;-81
2021/11/28 05:04:10;;;;;;;32.37;17.77;;;4.00;99.90;;;;;;5018222;28;20048;-81
2021/11/28 05:06:59;;;;;;;35.45;18.05;;;4.00;99.90;;;;;;5038407;28;20055;-82
2021/11/28 05:09:48;;;;;;;32.30;18.73;;;4.00;99.90;;;;;;4999121;28;20043;-81
2021/11/28 05:12:14;;;;;;;36.10;19.58;;;4.00;99.90;;;;;;5015665;28;20045;-81
2021/11/28 05:14:42;;;;;;;34.63;18.57;;;4.00;99.90;;;;;;5004139;28;20047;-81
2021/11/28 05:17:10;;;;;;;32.33;19.40;;;4.00;99.90;;;;;;5004211;28;20036;-82
2021/11/28 05:19:51;;;;;;;34.05;18.30;;;3.90;99.90;;;;;;5051922;28;20538;-81
2021/11/28 05:22:28;;;;;;;32.65;18.45;;;3.90;99.90;;;;;;5037201;28;20037;-81
2021/11/28 05:24:58;;;;;;;27.07;15.30;;;3.90;99.90;;;;;;5018092;28;20446;-81
2021/11/28 05:27:25;;;;;;;30.02;16.83;;;3.90;99.90;;;;;;5035055;28;20052;-81
2021/11/28 05:29:52;;;;;;;28.35;16.48;;;3.80;99.90;;;;;;5035394;28;20033;-81
2021/11/28 05:32:20;;;;;;;25.88;14.32;;;3.80;99.90;;;;;;5018864;28;20040;-81
2021/11/28 05:35:05;;;;;;;28.23;15.55;;;3.80;99.90;;;;;;5036343;28;20056;-81
2021/11/28 05:37:45;;;;;;;31.70;17.63;;;3.70;99.90;;;;;;5050610;28;20063;-82
2021/11/28 05:40:17;;;;;;;30.90;16.92;;;3.60;99.90;;;;;;5019485;28;20498;-82
2021/11/28 05:42:48;;;;;;;27.00;15.40;;;3.50;99.90;;;;;;5051898;28;20032;-81
2021/11/28 05:45:16;;;;;;;32.72;18.27;;;3.40;99.90;;;;;;5017989;28;20494;-81
2021/11/28 05:48:00;;;;;;;33.45;17.33;;;3.30;99.90;;;;;;5053335;28;20068;-82
2021/11/28 05:50:41;;;;;;;29.30;15.93;;;3.20;99.90;;;;;;5020819;28;20040;-82
2021/11/28 05:53:11;;;;;;;28.30;15.97;;;3.10;99.90;;;;;;5018594;28;20036;-81
2021/11/28 05:55:39;;;;;;;31.00;16.23;;;3.10;99.90;;;;;;5017421;28;20044;-81
2021/11/28 05:58:07;;;;;;;26.90;14.30;;;3.00;99.90;;;;;;5034917;28;20045;-81
2021/11/28 06:00:34;;;;;;;22.77;13.88;;;2.90;99.90;;;;;;5034847;28;20040;-81
2021/11/28 06:03:03;;;;;;;25.17;13.87;;;2.80;99.90;;;;;;5018235;28;20032;-81
2021/11/28 06:05:40;;;;;;;23.17;13.50;;;2.80;99.90;;;;;;5020301;28;20040;-81
2021/11/28 06:08:16;;;;;;;28.60;13.87;;;2.70;99.90;;;;;;5034551;28;20059;-81
2021/11/28 06:10:46;;;;;;;24.65;13.60;;;2.60;99.90;;;;;;5019386;28;20040;-81
2021/11/28 06:13:13;;;;;;;23.70;13.53;;;2.60;99.90;;;;;;5025483;28;20032;-81
2021/11/28 06:15:45;;;;;;;28.23;14.38;;;2.50;99.90;;;;;;5002039;28;20040;-81
2021/11/28 06:18:30;;;;;;;29.70;14.57;;;2.50;99.90;;;;;;5011322;28;20044;-81
2021/11/28 06:21:16;;;;;;;29.93;15.97;;;2.40;99.90;;;;;;5022916;28;20041;-81
2021/11/28 06:23:50;;;;;;;28.97;14.73;;;2.40;99.90;;;;;;5002632;28;20051;-81
2021/11/28 06:26:18;;;;;;;22.60;12.70;;;2.30;99.90;;;;;;5017829;28;20028;-81
2021/11/28 06:28:45;;;;;;;24.77;12.50;;;2.30;99.90;;;;;;5017760;28;20499;-81
2021/11/28 06:31:12;;;;;;;21.50;11.93;;;2.30;99.90;;;;;;5034607;28;20040;-81
2021/11/28 06:33:39;;;;;;;22.40;13.10;;;2.20;99.90;;;;;;5017600;28;20040;-81
2021/11/28 06:36:24;;;;;;;24.77;13.67;;;2.20;99.90;;;;;;5052542;28;20055;-81
2021/11/28 06:39:16;;;;;;;24.30;13.60;;;2.20;99.90;;;;;;5067372;28;20036;-81
2021/11/28 06:42:07;;;;;;;22.90;11.53;;;2.20;99.90;;;;;;5035185;28;20032;-81
2021/11/28 06:44:35;;;;;;;26.50;13.20;;;2.20;99.90;;;;;;5031500;28;20509;-81
2021/11/28 06:47:02;;;;;;;25.50;12.33;;;2.20;99.90;;;;;;5016969;28;20392;-80
2021/11/28 06:49:28;;;;;;;28.00;13.60;;;2.30;99.90;;;;;;5017660;28;20391;-81
2021/11/28 06:52:23;;;;;;;30.87;16.07;;;2.40;99.90;;;;;;5021665;28;20039;-81
2021/11/28 06:55:15;;;;;;;30.20;14.40;;;2.50;99.90;;;;;;5008494;28;20056;-80
2021/11/28 06:57:42;;;;;;;41.87;16.27;;;2.50;99.90;;;;;;5043968;28;20032;-80
2021/11/28 07:00:10;;;;;;;38.57;16.33;;;2.60;99.90;;;;;;5007902;28;20373;-80
2021/11/28 07:02:37;;;;;;;124.33;20.97;;;2.60;99.90;;;;;;5017879;28;20028;-81
2021/11/28 07:05:43;;;;;;;64.13;17.53;;;2.70;99.90;;;;;;5036999;28;20033;-80
2021/11/28 07:08:10;;;;;;;53.33;17.77;;;2.70;99.90;;;;;;4994216;28;20044;-81
2021/11/28 07:10:39;;;;;;;69.00;17.73;;;2.80;99.90;;;;;;5018188;28;20032;-81
2021/11/28 07:13:13;;;;;;;50.40;16.47;;;2.80;99.90;;;;;;5017385;28;20040;-80
2021/11/28 07:15:40;;;;;;;77.63;18.20;;;2.80;99.90;;;;;;5019080;28;20051;-80
2021/11/28 07:18:09;;;;;;;42.93;14.23;;;2.80;99.90;;;;;;5033498;28;20040;-80
2021/11/28 07:21:02;;;;;;;75.60;16.55;;;2.80;99.90;;;;;;5026961;28;20037;-81
2021/11/28 07:23:30;;;;;;;37.03;14.10;;;2.90;99.90;;;;;;5033522;28;20044;-81
2021/11/28 07:26:00;;;;;;;42.72;16.00;;;2.90;99.90;;;;;;5033963;28;20055;-81
2021/11/28 07:28:41;;;;;;;65.13;18.70;;;2.90;99.90;;;;;;5016217;28;20357;-81
2021/11/28 07:31:08;;;;;;;41.03;16.43;;;2.80;99.90;;;;;;5018009;28;20044;-82
2021/11/28 07:34:06;;;;;;;44.00;17.73;;;2.80;99.90;;;;;;5040989;28;20052;-79
2021/11/28 07:36:51;;;;;;;45.90;16.97;;;2.80;99.90;;;;;;5055087;28;20479;-79
2021/11/28 07:39:20;;;;;;;62.30;18.10;;;2.90;99.90;;;;;;5053307;28;20040;-82
2021/11/28 07:41:54;;;;;;;39.42;16.02;;;2.80;99.90;;;;;;5035706;28;20032;-83
2021/11/28 07:44:49;;;;;;;50.25;17.27;;;2.80;99.90;;;;;;5000965;28;20067;-83
2021/11/28 07:47:39;;;;;;;39.73;17.97;;;2.80;99.90;;;;;;5017127;28;20040;-83
2021/11/28 07:50:20;;;;;;;41.97;17.73;;;2.80;99.90;;;;;;5052856;28;20036;-80
2021/11/28 07:52:49;;;;;;;87.20;24.57;;;2.80;99.90;;;;;;5049652;28;20021;-80
2021/11/28 07:55:23;;;;;;;41.60;19.38;;;2.80;99.90;;;;;;5033287;28;20040;-81
2021/11/28 07:58:03;;;;;;;47.60;21.20;;;2.80;99.90;;;;;;5051959;28;20500;-82
2021/11/28 08:00:39;;;;;;;47.73;17.50;;;2.80;99.90;;;;;;5037103;28;20040;-82
2021/11/28 08:03:32;;;;;;;37.85;15.52;;;2.70;99.90;;;;;;5067313;28;20048;-83
2021/11/28 08:06:17;;;;;;;55.60;17.63;;;2.70;99.90;;;;;;5038178;28;20040;-79
2021/11/28 08:08:50;;;;;;;49.93;17.57;;;2.70;99.90;;;;;;5016821;28;20040;-83
2021/11/28 08:11:45;;;;;;;46.75;17.23;;;2.70;99.90;;;;;;5032665;28;20043;-83
2021/11/28 08:14:14;;;;;;;33.30;14.97;;;2.70;99.90;;;;;;5035152;28;20040;-84
2021/11/28 08:16:41;;;;;;;35.97;15.43;;;2.60;99.90;;;;;;5021209;28;20140;-83
2021/11/28 08:19:09;;;;;;;36.73;15.10;;;2.70;99.90;;;;;;5018451;28;20428;-82
2021/11/28 08:21:35;;;;;;;38.63;16.23;;;2.60;99.90;;;;;;5020106;28;20049;-84
2021/11/28 08:24:06;;;;;;;36.13;15.47;;;2.60;99.90;;;;;;5059842;28;20392;-82
2021/11/28 08:26:35;;;;;;;37.27;17.30;;;2.60;99.90;;;;;;5031899;28;20045;-81
2021/11/28 08:29:03;;;;;;;38.00;16.73;;;2.60;99.90;;;;;;5033088;28;20028;-80
2021/11/28 08:31:29;;;;;;;40.40;18.20;;;2.60;99.90;;;;;;5045365;28;20032;-80
2021/11/28 08:34:14;;;;;;;38.50;17.37;;;2.60;99.90;;;;;;5038238;28;20037;-80
2021/11/28 08:36:51;;;;;;;37.13;16.07;;;2.60;99.90;;;;;;4993011;28;20049;-80
2021/11/28 08:39:18;;;;;;;32.43;16.10;;;2.70;99.90;;;;;;5031290;28;20052;-79
2021/11/28 08:41:44;;;;;;;40.07;16.57;;;2.70;99.90;;;;;;5016039;28;20037;-78
2021/11/28 08:44:11;;;;;;;27.63;13.43;;;2.70;99.90;;;;;;5030728;28;20060;-79
2021/11/28 08:46:37;;;;;;;29.53;15.43;;;2.80;99.90;;;;;;4987956;28;20032;-80
2021/11/28 08:49:04;;;;;;;40.83;17.97;;;2.80;99.90;;;;;;4998455;28;20041;-78
2021/11/28 08:51:30;;;;;;;31.70;15.53;;;2.90;99.90;;;;;;5050972;28;20041;-80
2021/11/28 08:53:58;;;;;;;34.37;15.27;;;2.90;99.90;;;;;;5032351;28;20026;-79
2021/11/28 08:56:25;;;;;;;34.50;16.60;;;3.00;99.90;;;;;;5000632;28;20036;-79
2021/11/28 08:58:52;;;;;;;37.13;17.40;;;3.00;99.90;;;;;;5016823;28;20036;-78
2021/11/28 09:01:19;;;;;;;35.87;17.70;;;3.10;99.90;;;;;;4996480;28;20033;-79
2021/11/28 09:03:47;;;;;;;41.57;17.47;;;3.00;99.90;;;;;;5033340;28;20051;-80
2021/11/28 09:06:14;;;;;;;37.00;18.20;;;3.00;99.90;;;;;;5000165;28;20037;-80
2021/11/28 09:08:40;;;;;;;37.90;16.63;;;3.00;99.90;;;;;;5012905;28;20029;-80
2021/11/28 09:11:07;;;;;;;48.23;18.50;;;3.10;99.90;;;;;;5010110;28;20055;-81
2021/11/28 09:13:36;;;;;;;38.77;15.80;;;3.10;99.90;;;;;;5014045;28;20036;-80
2021/11/28 09:16:03;;;;;;;35.13;15.57;;;3.20;99.90;;;;;;5038110;28;20024;-80
2021/11/28 09:18:38;;;;;;;32.13;14.57;;;3.30;99.90;;;;;;4997423;28;20457;-80
2021/11/28 09:21:06;;;;;;;32.00;15.55;;;3.40;99.90;;;;;;4999385;28;20037;-80
2021/11/28 09:26:18;;;;;;;38.90;17.77;;;3.60;99.90;;;;;;5002306;28;20044;-82
2021/11/28 09:28:44;;;;;;;32.17;15.93;;;3.70;99.90;;;;;;5012500;28;20042;-79
2021/11/28 09:31:16;;;;;;;33.47;15.48;;;3.80;99.90;;;;;;5012123;28;20056;-82
2021/11/28 09:33:43;;;;;;;33.08;14.98;;;3.90;99.90;;;;;;4992897;28;20494;-81
2021/11/28 09:36:10;;;;;;;30.80;16.30;;;4.00;99.90;;;;;;5046024;28;20048;-80
2021/11/28 09:38:37;;;;;;;29.17;14.63;;;4.10;99.90;;;;;;5055138;28;20515;-81
2021/11/28 09:41:07;;;;;;;49.95;17.35;;;4.20;99.90;;;;;;5006018;28;20035;-80
2021/11/28 09:43:36;;;;;;;23.33;13.00;;;4.30;99.90;;;;;;5034403;28;20040;-79
2021/11/28 09:46:04;;;;;;;21.30;13.70;;;4.50;99.90;;;;;;5054775;28;20028;-81
2021/11/28 09:48:34;;;;;;;21.80;13.88;;;4.70;99.90;;;;;;5026346;28;20033;-82
2021/11/28 09:51:06;;;;;;;19.77;12.27;;;4.90;99.90;;;;;;5059012;28;20028;-81
2021/11/28 09:53:35;;;;;;;23.33;13.02;;;5.20;99.90;;;;;;5036015;28;20028;-82
2021/11/28 09:56:02;;;;;;;19.65;12.32;;;5.50;99.90;;;;;;5071605;28;20041;-82
2021/11/28 09:58:29;;;;;;;39.50;13.15;;;5.70;99.90;;;;;;5073149;28;20043;-82
2021/11/28 10:01:00;;;;;;;26.67;13.80;;;6.00;99.90;;;;;;5024631;28;20042;-82
2021/11/28 10:03:33;;;;;;;28.20;12.68;;;6.30;99.90;;;;;;5034752;28;20028;-81
2021/11/28 10:05:59;;;;;;;20.20;14.27;;;6.50;99.90;;;;;;5072525;28;20020;-81
2021/11/28 10:08:26;;;;;;;19.30;12.65;;;6.50;99.90;;;;;;5057292;28;20383;-78
2021/11/28 10:11:11;;;;;;;22.08;13.95;;;6.50;99.90;;;;;;5059052;28;20040;-81
2021/11/28 10:13:38;;;;;;;21.70;13.88;;;6.50;99.90;;;;;;5037556;28;20380;-81
2021/11/28 10:16:09;;;;;;;21.58;13.27;;;6.50;99.90;;;;;;5020495;28;20036;-82
2021/11/28 10:18:36;;;;;;;18.90;12.82;;;6.40;99.90;;;;;;5033407;28;20048;-82
2021/11/28 10:21:06;;;;;;;20.42;13.45;;;6.40;99.90;;;;;;5059281;28;20028;-82
2021/11/28 10:23:33;;;;;;;22.98;14.68;;;6.30;99.90;;;;;;4994700;28;20063;-80
2021/11/28 10:26:14;;;;;;;22.23;14.30;;;6.30;99.90;;;;;;5039241;28;20043;-82
2021/11/28 10:29:08;;;;;;;25.23;14.98;;;6.30;99.90;;;;;;5046068;28;20029;-82
2021/11/28 10:31:56;;;;;;;25.48;15.40;;;6.20;99.90;;;;;;5051819;28;20139;-77
2021/11/28 10:34:36;;;;;;;23.55;14.60;;;6.10;99.90;;;;;;5072357;28;20028;-80
2021/11/28 10:37:18;;;;;;;25.15;14.18;;;6.00;99.90;;;;;;5052909;28;20123;-82
2021/11/28 10:39:49;;;;;;;23.23;13.73;;;6.00;99.90;;;;;;5063633;28;20056;-83
2021/11/28 10:42:18;;;;;;;25.13;15.48;;;5.90;99.90;;;;;;5036516;28;20048;-81
2021/11/28 10:45:03;;;;;;;24.17;15.52;;;5.90;99.90;;;;;;5040762;28;20037;-81
2021/11/28 10:47:56;;;;;;;29.48;16.90;;;5.90;99.90;;;;;;5043954;28;20040;-82
2021/11/28 10:50:31;;;;;;;24.75;14.88;;;5.80;99.90;;;;;;5024889;28;20051;-80
2021/11/28 10:53:24;;;;;;;27.17;16.65;;;5.80;99.90;;;;;;5025876;28;20492;-81
2021/11/28 10:56:00;;;;;;;31.45;19.15;;;5.90;99.90;;;;;;5020548;28;20055;-80
2021/11/28 10:58:35;;;;;;;32.97;18.70;;;6.00;99.90;;;;;;5020584;28;20036;-80
2021/11/28 11:01:09;;;;;;;32.10;18.42;;;6.00;99.90;;;;;;5032122;28;20491;-80
2021/11/28 11:03:38;;;;;;;31.25;18.67;;;6.00;99.90;;;;;;5025236;28;20047;-82
2021/11/28 11:06:20;;;;;;;32.50;19.25;;;6.00;99.90;;;;;;5056510;28;20020;-82
2021/11/28 11:09:10;;;;;;;32.45;19.52;;;6.00;99.90;;;;;;5044139;28;20035;-80
2021/11/28 11:11:37;;;;;;;29.08;17.50;;;6.00;99.90;;;;;;5048279;28;20039;-82
2021/11/28 11:14:05;;;;;;;28.67;17.15;;;6.10;99.90;;;;;;5025997;28;20039;-82
2021/11/28 11:16:58;;;;;;;30.05;17.30;;;6.20;99.90;;;;;;5044463;28;20407;-81
2021/11/28 11:19:34;;;;;;;30.75;19.02;;;6.20;99.90;;;;;;5036018;28;20037;-82
2021/11/28 11:22:12;;;;;;;26.77;16.95;;;6.20;99.90;;;;;;5010181;28;20413;-82
2021/11/28 11:24:41;;;;;;;26.38;16.63;;;6.20;99.90;;;;;;5039858;28;20041;-82
2021/11/28 11:27:17;;;;;;;26.33;17.23;;;6.30;99.90;;;;;;5018292;28;20041;-82
2021/11/28 11:29:48;;;;;;;28.98;16.10;;;6.20;99.90;;;;;;5038211;28;20036;-81
2021/11/28 11:32:18;;;;;;;25.17;16.27;;;6.20;99.90;;;;;;5054218;28;20055;-81
2021/11/28 11:34:52;;;;;;;26.35;17.20;;;6.10;99.90;;;;;;5050367;28;20037;-82
2021/11/28 11:37:25;;;;;;;26.77;16.05;;;6.10;99.90;;;;;;5022802;28;20035;-82
2021/11/28 11:39:57;;;;;;;25.08;15.38;;;6.00;99.90;;;;;;5057056;28;20044;-82
2021/11/28 11:42:28;;;;;;;20.05;13.07;;;5.90;99.90;;;;;;5027990;28;20035;-83
2021/11/28 11:44:56;;;;;;;24.63;15.43;;;5.90;99.90;;;;;;5060783;28;20415;-82
2021/11/28 11:47:22;;;;;;;22.73;14.55;;;6.00;99.90;;;;;;5047561;28;20040;-82
2021/11/28 11:49:50;;;;;;;21.98;15.13;;;6.20;99.90;;;;;;5029627;28;20376;-82
2021/11/28 11:52:17;;;;;;;25.75;15.55;;;6.30;99.90;;;;;;5063537;28;20036;-82
2021/11/28 11:54:51;;;;;;;23.08;14.98;;;6.30;99.90;;;;;;5014055;28;20060;-83
2021/11/28 11:57:48;;;;;;;19.65;12.52;;;6.20;99.90;;;;;;5079758;28;20024;-83
2021/11/28 12:00:30;;;;;;;18.50;12.02;;;6.30;99.90;;;;;;5052315;28;20033;-85
2021/11/28 12:02:56;;;;;;;19.77;12.10;;;6.30;99.90;;;;;;5039239;28;20507;-83
2021/11/28 12:05:31;;;;;;;18.63;11.90;;;6.30;99.90;;;;;;5034860;28;20122;-84
2021/11/28 12:08:01;;;;;;;16.88;11.23;;;6.40;99.90;;;;;;5033110;28;20036;-80
2021/11/28 12:10:44;;;;;;;16.83;11.53;;;6.40;99.90;;;;;;5033939;28;20379;-80
2021/11/28 12:13:25;;;;;;;18.08;11.63;;;6.40;99.90;;;;;;5038536;28;20806;-82
2021/11/28 12:15:54;;;;;;;19.33;11.90;;;6.40;99.90;;;;;;5043795;28;20029;-81
2021/11/28 12:18:41;;;;;;;16.30;10.82;;;6.30;99.90;;;;;;5042586;28;20040;-82
2021/11/28 12:21:13;;;;;;;19.23;11.75;;;6.40;99.90;;;;;;5048607;28;20055;-81
2021/11/28 12:24:01;;;;;;;19.35;12.27;;;6.30;99.90;;;;;;5050165;28;20032;-84
2021/11/28 12:26:28;;;;;;;17.80;10.95;;;6.30;99.90;;;;;;5051227;28;20043;-84
2021/11/28 12:28:58;;;;;;;17.67;12.23;;;6.40;99.90;;;;;;5017980;28;20033;-83
2021/11/28 12:31:27;;;;;;;17.52;11.52;;;6.40;99.90;;;;;;5048278;28;20045;-84
2021/11/28 12:33:54;;;;;;;20.85;11.15;;;6.40;99.90;;;;;;5032690;28;20048;-87
2021/11/28 12:36:54;;;;;;;15.40;10.80;;;6.40;99.90;;;;;;5031752;28;20053;-84
2021/11/28 12:39:24;;;;;;;15.95;9.65;;;6.50;99.90;;;;;;5051803;28;20036;-82
2021/11/28 12:42:13;;;;;;;13.38;8.57;;;6.50;99.90;;;;;;5035582;28;20051;-83
2021/11/28 12:44:49;;;;;;;14.43;9.63;;;6.50;99.90;;;;;;5031881;28;20028;-84
2021/11/28 12:47:26;;;;;;;12.48;9.07;;;6.50;99.90;;;;;;5034476;28;20040;-85
2021/11/28 12:49:58;;;;;;;14.98;9.77;;;6.50;99.90;;;;;;5068576;28;20037;-80
2021/11/28 12:52:31;;;;;;;12.57;8.43;;;6.50;99.90;;;;;;5039192;28;20040;-81
2021/11/28 12:55:12;;;;;;;11.65;7.45;;;6.50;99.90;;;;;;5050405;28;20037;-83
2021/11/28 12:58:00;;;;;;;10.02;6.15;;;6.60;99.90;;;;;;5030637;28;20045;-78
2021/11/28 13:00:30;;;;;;;9.30;5.13;;;6.50;99.90;;;;;;5051578;28;20024;-81
2021/11/28 13:03:02;;;;;;;7.07;3.72;;;6.30;99.90;;;;;;5034733;28;20053;-83
2021/11/28 13:05:33;;;;;;;6.75;3.60;;;6.10;99.90;;;;;;5018976;28;20032;-80
2021/11/28 13:08:05;;;;;;;4.40;2.95;;;6.00;99.90;;;;;;5037089;28;20044;-80
2021/11/28 13:10:32;;;;;;;1.67;0.80;;;5.90;99.90;;;;;;5036836;28;20429;-79
2021/11/28 13:13:01;;;;;;;1.35;0.50;;;5.80;99.90;;;;;;5036061;28;20040;-78
2021/11/28 13:15:32;;;;;;;4.88;0.30;;;5.70;99.90;;;;;;5068207;28;20040;-79